createdAt,value
2022-11-10T00:00:51.103Z,20.00
2022-11-10T00:04:15.057Z,22.67
2022-11-10T00:07:38.455Z,26.42
2022-11-10T00:11:07.162Z,22.73
2022-11-10T00:18:07.140Z,24.00
2022-11-10T00:21:30.833Z,24.80
2022-11-10T00:24:54.735Z,27.17
2022-11-10T00:28:21.833Z,21.83
2022-11-10T00:31:45.326Z,24.25
2022-11-10T00:35:09.349Z,24.38
2022-11-10T00:38:32.971Z,20.80
2022-11-10T00:41:56.188Z,24.35
2022-11-10T00:45:22.446Z,19.35
2022-11-10T00:48:45.762Z,18.55
2022-11-10T00:52:09.552Z,21.75
2022-11-10T00:55:33.559Z,20.80
2022-11-10T00:58:57.492Z,22.13
2022-11-10T01:02:23.520Z,19.30
2022-11-10T01:05:47.744Z,21.02
2022-11-10T01:09:11.287Z,23.63
2022-11-10T01:12:35.309Z,23.02
2022-11-10T01:15:59.122Z,20.05
2022-11-10T01:19:25.287Z,20.27
2022-11-10T01:22:49.081Z,20.83
2022-11-10T01:26:12.969Z,21.67
2022-11-10T01:29:36.323Z,23.60
2022-11-10T01:33:00.183Z,21.40
2022-11-10T01:36:26.154Z,22.63
2022-11-10T01:39:49.924Z,24.80
2022-11-10T01:43:14.630Z,19.90
2022-11-10T01:46:39.057Z,24.02
2022-11-10T01:50:02.734Z,20.48
2022-11-10T01:53:31.219Z,22.75
2022-11-10T02:00:18.433Z,19.60
2022-11-10T02:03:44.390Z,24.48
2022-11-10T02:07:08.166Z,25.80
2022-11-10T02:10:34.141Z,20.92
2022-11-10T02:13:58.437Z,18.58
2022-11-10T02:17:22.469Z,23.67
2022-11-10T02:20:49.918Z,23.30
2022-11-10T02:24:13.705Z,20.17
2022-11-10T02:27:37.798Z,19.75
2022-11-10T02:31:01.448Z,22.33
2022-11-10T02:34:25.302Z,21.00
2022-11-10T02:37:51.226Z,20.90
2022-11-10T02:41:14.671Z,22.88
2022-11-10T02:44:38.774Z,22.35
2022-11-10T02:48:02.587Z,18.98
2022-11-10T02:51:26.141Z,22.58
2022-11-10T02:54:52.922Z,23.98
2022-11-10T02:58:18.263Z,20.77
2022-11-10T03:01:42.448Z,20.52
2022-11-10T03:05:07.072Z,20.05
2022-11-10T03:08:30.558Z,27.27
2022-11-10T03:11:57.046Z,19.83
2022-11-10T03:15:20.658Z,19.98
2022-11-10T03:18:44.497Z,20.50
2022-11-10T03:22:08.762Z,20.60
2022-11-10T03:25:32.524Z,19.98
2022-11-10T03:28:58.637Z,20.90
2022-11-10T03:32:22.605Z,24.50
2022-11-10T03:35:46.266Z,22.48
2022-11-10T03:39:10.143Z,20.17
2022-11-10T03:42:34.084Z,22.30
2022-11-10T03:46:00.864Z,21.27
2022-11-10T03:49:24.857Z,21.65
2022-11-10T03:52:48.793Z,25.00
2022-11-10T03:56:12.956Z,22.42
2022-11-10T03:59:36.654Z,21.00
2022-11-10T04:03:02.713Z,21.80
2022-11-10T04:06:53.659Z,19.38
2022-11-10T04:10:17.642Z,21.52
2022-11-10T04:13:53.835Z,22.38
2022-11-10T04:17:17.718Z,21.80
2022-11-10T04:20:43.902Z,21.27
2022-11-10T04:24:07.594Z,22.63
2022-11-10T04:27:31.579Z,25.88
2022-11-10T04:30:55.530Z,21.15
2022-11-10T04:34:19.241Z,24.95
2022-11-10T04:37:45.867Z,24.60
2022-11-10T04:41:09.694Z,23.80
2022-11-10T04:44:33.552Z,24.83
2022-11-10T04:47:57.465Z,25.80
2022-11-10T04:51:21.615Z,23.80
2022-11-10T04:54:48.186Z,23.25
2022-11-10T04:58:12.092Z,30.23
2022-11-10T05:01:35.627Z,26.63
2022-11-10T05:04:59.553Z,30.50
2022-11-10T05:08:23.184Z,25.20
2022-11-10T05:11:49.751Z,24.67
2022-11-10T05:15:14.414Z,24.73
2022-11-10T05:18:38.221Z,31.08
2022-11-10T05:22:02.446Z,28.27
2022-11-10T05:25:26.581Z,26.63
2022-11-10T05:28:52.943Z,30.48
2022-11-10T05:32:16.951Z,25.45
2022-11-10T05:35:40.832Z,25.52
2022-11-10T05:39:04.389Z,26.67
2022-11-10T05:42:28.356Z,24.80
2022-11-10T05:45:54.434Z,26.23
2022-11-10T05:49:18.358Z,28.52
2022-11-10T05:52:46.319Z,29.05
2022-11-10T05:56:13.488Z,29.73
2022-11-10T05:59:37.383Z,24.63
2022-11-10T06:03:04.942Z,26.98
2022-11-10T06:06:28.655Z,26.90
2022-11-10T06:09:52.173Z,24.77
2022-11-10T06:13:16.206Z,26.00
2022-11-10T06:16:40.330Z,23.60
2022-11-10T06:20:07.617Z,24.25
2022-11-10T06:23:31.248Z,25.65
2022-11-10T06:26:55.299Z,26.13
2022-11-10T06:30:19.103Z,29.25
2022-11-10T06:33:43.585Z,22.58
2022-11-10T06:37:10.412Z,21.08
2022-11-10T06:40:34.901Z,24.48
2022-11-10T06:43:58.965Z,22.30
2022-11-10T06:47:22.645Z,25.88
2022-11-10T06:50:46.780Z,24.58
2022-11-10T06:54:13.077Z,22.65
2022-11-10T06:57:40.652Z,23.75
2022-11-10T07:01:04.319Z,26.40
2022-11-10T07:04:28.402Z,22.80
2022-11-10T07:07:52.436Z,26.60
2022-11-10T07:11:18.821Z,25.20
2022-11-10T07:14:42.707Z,22.55
2022-11-10T07:18:08.368Z,21.80
2022-11-10T07:21:32.293Z,23.10
2022-11-10T07:24:56.019Z,22.60
2022-11-10T07:28:25.886Z,23.20
2022-11-10T07:31:52.016Z,23.20
2022-11-10T07:35:16.032Z,25.60
2022-11-10T07:38:39.929Z,29.80
2022-11-10T07:42:03.713Z,23.42
2022-11-10T07:45:30.179Z,24.42
2022-11-10T07:48:54.171Z,22.30
2022-11-10T07:52:17.808Z,22.85
2022-11-10T07:55:42.878Z,26.95
2022-11-10T07:59:07.076Z,27.20
2022-11-10T08:02:33.560Z,26.17
2022-11-10T08:05:57.559Z,23.63
2022-11-10T08:09:21.113Z,22.77
2022-11-10T08:12:45.469Z,25.38
2022-11-10T08:16:09.075Z,27.20
2022-11-10T08:19:35.466Z,22.95
2022-11-10T08:23:02.556Z,26.55
2022-11-10T08:26:26.513Z,27.50
2022-11-10T08:29:50.504Z,24.88
2022-11-10T08:33:15.219Z,22.42
2022-11-10T08:36:42.095Z,26.95
2022-11-10T08:40:05.520Z,24.98
2022-11-10T08:43:29.117Z,22.52
2022-11-10T08:46:52.593Z,28.38
2022-11-10T08:50:16.275Z,25.80
2022-11-10T08:53:43.069Z,26.67
2022-11-10T08:57:06.384Z,27.00
2022-11-10T09:00:31.700Z,27.98
2022-11-10T09:03:55.891Z,28.30
2022-11-10T09:07:20.102Z,25.63
2022-11-10T09:10:48.279Z,28.38
2022-11-10T09:14:12.960Z,30.92
2022-11-10T09:17:37.161Z,27.02
2022-11-10T09:21:00.900Z,30.40
2022-11-10T09:24:30.076Z,30.45
2022-11-10T09:27:57.911Z,28.83
2022-11-10T09:31:21.794Z,28.42
2022-11-10T09:34:48.956Z,27.20
2022-11-10T09:38:16.920Z,24.88
2022-11-10T09:41:44.112Z,32.88
2022-11-10T09:45:15.835Z,30.63
2022-11-10T09:48:42.136Z,27.60
2022-11-10T09:52:07.004Z,26.50
2022-11-10T09:55:34.701Z,31.20
2022-11-10T10:02:31.194Z,28.77
2022-11-10T10:06:03.238Z,31.60
2022-11-10T10:09:29.653Z,29.02
2022-11-10T10:13:00.545Z,28.90
2022-11-10T10:16:28.342Z,26.45
2022-11-10T10:19:59.765Z,29.95
2022-11-10T10:23:46.778Z,31.08
2022-11-10T10:27:14.947Z,32.35
2022-11-10T10:30:39.031Z,32.15
2022-11-10T10:34:03.130Z,31.48
2022-11-10T10:37:29.994Z,31.52
2022-11-10T10:40:54.305Z,28.90
2022-11-10T10:44:18.880Z,30.40
2022-11-10T10:47:43.569Z,28.83
2022-11-10T10:51:07.325Z,30.45
2022-11-10T10:54:34.905Z,32.85
2022-11-10T10:58:01.313Z,29.65
2022-11-10T11:01:29.439Z,30.23
2022-11-10T11:05:11.558Z,33.45
2022-11-10T11:08:35.838Z,33.67
2022-11-10T11:12:06.240Z,32.75
2022-11-10T11:15:30.841Z,30.17
2022-11-10T11:18:54.206Z,33.63
2022-11-10T11:22:45.829Z,31.85
2022-11-10T11:26:12.069Z,32.78
2022-11-10T11:29:50.065Z,32.22
2022-11-10T11:33:19.789Z,30.55
2022-11-10T11:36:46.942Z,33.45
2022-11-10T11:40:16.782Z,33.90
2022-11-10T11:43:53.118Z,32.25
2022-11-10T11:47:23.364Z,30.23
2022-11-10T11:50:52.325Z,28.02
2022-11-10T11:54:22.249Z,30.27
2022-11-10T11:57:53.421Z,36.70
2022-11-10T12:01:30.443Z,28.92
2022-11-10T12:05:02.318Z,31.73
2022-11-10T12:08:30.896Z,34.63
2022-11-10T12:12:04.558Z,34.33
2022-11-10T12:15:32.558Z,30.55
2022-11-10T12:18:59.598Z,33.50
2022-11-10T12:22:30.412Z,31.55
2022-11-10T12:25:59.412Z,29.98
2022-11-10T12:29:28.424Z,35.22
2022-11-10T12:32:56.546Z,31.95
2022-11-10T12:36:22.338Z,33.78
2022-11-10T12:39:51.423Z,33.85
2022-11-10T12:43:20.993Z,32.85
2022-11-10T12:46:51.790Z,32.17
2022-11-10T12:50:29.483Z,33.00
2022-11-10T12:53:53.750Z,32.70
2022-11-10T12:57:21.581Z,35.70
2022-11-10T13:00:47.042Z,34.47
2022-11-10T13:04:10.940Z,29.27
2022-11-10T13:07:35.588Z,30.70
2022-11-10T13:11:00.582Z,34.95
2022-11-10T13:14:32.027Z,32.83
2022-11-10T13:17:57.394Z,32.72
2022-11-10T13:21:21.444Z,34.08
2022-11-10T13:24:45.491Z,27.73
2022-11-10T13:28:11.501Z,31.40
2022-11-10T13:31:54.060Z,34.05
2022-11-10T13:35:32.926Z,33.15
2022-11-10T13:38:56.876Z,32.28
2022-11-10T13:42:23.671Z,29.33
2022-11-10T13:45:48.919Z,30.75
2022-11-10T13:49:28.386Z,30.55
2022-11-10T13:52:59.844Z,31.30
2022-11-10T13:56:30.782Z,38.45
2022-11-10T13:59:56.782Z,33.88
2022-11-10T14:03:35.904Z,29.38
2022-11-10T14:07:03.720Z,33.08
2022-11-10T14:10:37.674Z,33.77
2022-11-10T14:14:04.071Z,31.40
2022-11-10T14:17:30.054Z,33.97
2022-11-10T14:20:58.452Z,31.13
2022-11-10T14:24:27.688Z,35.58
2022-11-10T14:27:57.694Z,32.28
2022-11-10T14:31:24.188Z,38.53
2022-11-10T14:34:49.422Z,39.05
2022-11-10T14:38:21.195Z,33.53
2022-11-10T14:41:52.218Z,32.40
2022-11-10T14:45:18.954Z,32.30
2022-11-10T14:48:42.650Z,32.33
2022-11-10T14:52:06.378Z,35.50
2022-11-10T14:55:31.302Z,35.25
2022-11-10T14:58:59.725Z,32.17
2022-11-10T15:02:23.935Z,38.20
2022-11-10T15:05:47.950Z,36.92
2022-11-10T15:09:18.539Z,44.00
2022-11-10T15:12:42.654Z,34.85
2022-11-10T15:16:21.316Z,34.45
2022-11-10T15:19:58.324Z,40.58
2022-11-10T15:23:27.001Z,35.30
2022-11-10T15:26:55.254Z,36.15
2022-11-10T15:30:24.206Z,27.30
2022-11-10T15:33:49.498Z,35.13
2022-11-10T15:37:27.532Z,38.80
2022-11-10T15:40:54.929Z,33.78
2022-11-10T15:44:19.773Z,42.08
2022-11-10T15:47:44.673Z,39.90
2022-11-10T15:51:13.076Z,35.38
2022-11-10T15:54:43.222Z,38.40
2022-11-10T15:58:11.659Z,37.78
2022-11-10T16:01:36.192Z,38.35
2022-11-10T16:05:00.379Z,38.85
2022-11-10T16:08:25.792Z,38.20
2022-11-10T16:11:52.579Z,37.25
2022-11-10T16:15:18.632Z,34.50
2022-11-10T16:18:43.945Z,33.72
2022-11-10T16:22:08.170Z,36.85
2022-11-10T16:25:31.693Z,46.63
2022-11-10T16:28:58.749Z,38.33
2022-11-10T16:32:22.492Z,35.78
2022-11-10T16:35:46.416Z,36.95
2022-11-10T16:39:14.016Z,36.78
2022-11-10T16:42:37.992Z,38.65
2022-11-10T16:46:05.999Z,34.33
2022-11-10T16:49:33.245Z,35.03
2022-11-10T16:52:57.945Z,31.23
2022-11-10T16:56:22.150Z,35.13
2022-11-10T16:59:46.349Z,33.58
2022-11-10T17:03:16.097Z,33.58
2022-11-10T17:06:39.967Z,37.83
2022-11-10T17:10:04.034Z,34.13
2022-11-10T17:13:28.391Z,36.85
2022-11-10T17:16:52.622Z,39.55
2022-11-10T17:20:22.646Z,40.95
2022-11-10T17:23:46.284Z,43.05
2022-11-10T17:27:10.687Z,47.92
2022-11-10T17:30:34.636Z,45.22
2022-11-10T17:33:58.602Z,46.00
2022-11-10T17:37:24.828Z,42.80
2022-11-10T17:40:48.696Z,43.63
2022-11-10T17:44:15.190Z,42.35
2022-11-10T17:47:39.292Z,43.53
2022-11-10T17:51:03.653Z,41.17
2022-11-10T17:54:29.968Z,41.17
2022-11-10T17:57:54.286Z,40.17
2022-11-10T18:01:19.871Z,36.45
2022-11-10T18:04:43.971Z,36.38
2022-11-10T18:08:08.947Z,39.75
2022-11-10T18:11:35.285Z,38.33
2022-11-10T18:14:58.707Z,43.55
2022-11-10T18:18:22.813Z,44.70
2022-11-10T18:21:46.451Z,34.25
2022-11-10T18:25:11.340Z,34.50
2022-11-10T18:28:37.942Z,33.10
2022-11-10T18:32:01.614Z,35.55
2022-11-10T18:35:25.363Z,31.70
2022-11-10T18:38:48.989Z,35.17
2022-11-10T18:42:12.895Z,35.17
2022-11-10T18:45:39.049Z,33.63
2022-11-10T18:49:03.251Z,30.75
2022-11-10T18:52:26.962Z,37.05
2022-11-10T18:55:56.548Z,34.60
2022-11-10T18:59:19.945Z,36.25
2022-11-10T19:02:47.815Z,39.67
2022-11-10T19:06:12.048Z,37.60
2022-11-10T19:09:36.019Z,38.53
2022-11-10T19:13:00.118Z,36.22
2022-11-10T19:16:23.767Z,38.13
2022-11-10T19:19:55.033Z,35.47
2022-11-10T19:23:21.244Z,38.28
2022-11-10T19:26:45.283Z,40.08
2022-11-10T19:30:09.786Z,37.15
2022-11-10T19:33:33.710Z,41.45
2022-11-10T19:37:00.202Z,39.08
2022-11-10T19:40:23.802Z,43.67
2022-11-10T19:43:47.892Z,37.75
2022-11-10T19:47:11.447Z,37.40
2022-11-10T19:50:35.237Z,39.67
2022-11-10T19:54:02.539Z,36.42
2022-11-10T19:57:26.765Z,42.40
2022-11-10T20:00:51.315Z,36.00
2022-11-10T20:04:14.980Z,42.35
2022-11-10T20:07:51.062Z,38.35
2022-11-10T20:11:18.641Z,45.13
2022-11-10T20:14:42.633Z,40.78
2022-11-10T20:18:08.644Z,39.42
2022-11-10T20:21:32.686Z,36.58
2022-11-10T20:24:56.121Z,44.03
2022-11-10T20:28:22.907Z,36.58
2022-11-10T20:31:46.544Z,41.35
2022-11-10T20:35:10.264Z,46.22
2022-11-10T20:38:34.121Z,41.50
2022-11-10T20:41:58.129Z,43.05
2022-11-10T20:45:24.863Z,39.67
2022-11-10T20:48:49.285Z,42.75
2022-11-10T20:52:12.769Z,44.03
2022-11-10T20:55:53.163Z,38.47
2022-11-10T20:59:17.500Z,42.15
2022-11-10T21:02:43.966Z,41.05
2022-11-10T21:06:08.456Z,44.53
2022-11-10T21:09:32.747Z,44.22
2022-11-10T21:12:56.825Z,42.50
2022-11-10T21:16:20.554Z,37.78
2022-11-10T21:19:48.633Z,41.42
2022-11-10T21:23:12.088Z,41.97
2022-11-10T21:26:36.423Z,39.97
2022-11-10T21:30:00.758Z,38.53
2022-11-10T21:33:24.560Z,40.15
2022-11-10T21:36:50.945Z,44.15
2022-11-10T21:40:15.448Z,44.55
2022-11-10T21:43:39.419Z,39.85
2022-11-10T21:47:03.671Z,39.08
2022-11-10T21:50:27.540Z,45.22
2022-11-10T21:53:53.701Z,40.38
2022-11-10T21:57:17.701Z,42.60
2022-11-10T22:00:41.885Z,41.03
2022-11-10T22:04:05.973Z,44.72
2022-11-10T22:07:30.478Z,41.70
2022-11-10T22:11:08.816Z,40.85
2022-11-10T22:18:26.866Z,42.05
2022-11-10T22:21:50.090Z,38.67
2022-11-10T22:25:13.774Z,47.72
2022-11-10T22:28:39.816Z,44.00
2022-11-10T22:32:04.119Z,41.83
2022-11-10T22:35:39.840Z,42.03
2022-11-10T22:39:04.133Z,43.08
2022-11-10T22:42:40.069Z,44.08
2022-11-10T22:46:06.577Z,48.05
2022-11-10T22:49:30.514Z,47.83
2022-11-10T22:52:54.167Z,46.80
2022-11-10T22:56:19.445Z,46.53
2022-11-10T22:59:43.512Z,49.35
2022-11-10T23:03:11.319Z,49.28
2022-11-10T23:06:35.055Z,45.10
2022-11-10T23:09:59.070Z,43.30
2022-11-10T23:13:23.000Z,48.17
2022-11-10T23:16:47.099Z,44.72
2022-11-10T23:20:14.293Z,50.55
2022-11-10T23:23:38.753Z,49.80
2022-11-10T23:27:02.260Z,48.17
2022-11-10T23:30:25.793Z,40.47
2022-11-10T23:33:50.347Z,49.47
2022-11-10T23:37:16.804Z,41.35
2022-11-10T23:40:40.697Z,48.60
2022-11-10T23:44:04.582Z,46.25
2022-11-10T23:47:28.806Z,51.47
2022-11-10T23:50:52.387Z,42.47
2022-11-10T23:54:19.926Z,53.00
2022-11-10T23:57:43.774Z,52.17
